Wind From: 13-12-2017 10:08 Until: 14-12-2017 06:00 warning for: Wind Level: Yellow info button

Although rather usual in this region, locally or potentially dangerous phenomena are expected. (such as local winds, summer thunderstorms, rising streams or high waves) Be aware and pay attention to the latest weather updates, especially if you carry out activities exposed to weather or close to a stream or shoreline. 


Meteo18 Weather Cam more information Meteo18 Weather Cam


Thunder radar more information blitzortung!


Rain radar more information rain snow radar


Visit our other weather sites:

Template documentation
and downloads

And another site



Weather Underground History page Text

Daily Summary for November 26, 2017 Units:  Both    English   Metric
« Previous Day
Next Day »
Daily Weekly Monthly Yearly Custom
  High: Low: Average:
Temperature: 43.3 °F /  6.3 °C 29.5 °F /  -1.4 °C 35.8 °F /  2.1 °C
Dew Point: 38.1 °F /  3.4 °C 28.2 °F /  -2.1 °C 33.4 °F /  0.8 °C
Humidity: 97 % 77 % 91 %
Wind Speed: 11 mph /  17.7 km/h - 2.5 mph /  4 km/h
Wind Gust: 13 mph /  20.9 km/h - -
Wind:- - WSW
Pressure: 30.4 in /  1031.0 hPa 30.3 in /  1026.0 hPa -
Precipitation: 0.01 in /  0.3 mm    
Historical Graphs
 
 
Tabular Data for November 26, 2017
Time Temperature Dew Point Pressure Wind Wind Speed Wind Gust Humidity Rainfall Rate (Hourly)
00:02 34 °F /  1.1 °C 31.6 °F /  -0.2 °C 30.3 in /  1026.0 hPa Calm     91 % 0 in /  0.0 mm
00:07 34.2 °F /  1.2 °C 32 °F /  0.0 °C 30.3 in /  1026.0 hPa Calm   1 mph /  1.6 km/h 92 % 0 in /  0.0 mm
00:12 34.3 °F /  1.3 °C 32.2 °F /  0.1 °C 30.3 in /  1026.3 hPa Calm   1 mph /  1.6 km/h 92 % 0 in /  0.0 mm
00:17 34.5 °F /  1.4 °C 32.4 °F /  0.2 °C 30.3 in /  1026.3 hPa Calm   1 mph /  1.6 km/h 92 % 0 in /  0.0 mm
00:22 34.5 °F /  1.4 °C 32.2 °F /  0.1 °C 30.3 in /  1026.3 hPa Calm   1 mph /  1.6 km/h 91 % 0 in /  0.0 mm
00:32 34.5 °F /  1.4 °C 32.4 °F /  0.2 °C 30.3 in /  1026.3 hPa West 1 mph /  1.6 km/h 1 mph /  1.6 km/h 92 % 0 in /  0.0 mm
00:42 34.7 °F /  1.5 °C 32.5 °F /  0.3 °C 30.3 in /  1026.3 hPa Calm   2 mph /  3.2 km/h 92 % 0 in /  0.0 mm
00:52 34.3 °F /  1.3 °C 32 °F /  0.0 °C 30.3 in /  1026.3 hPa Calm   2 mph /  3.2 km/h 91 % 0 in /  0.0 mm
01:02 34.2 °F /  1.2 °C 32 °F /  0.0 °C 30.3 in /  1026.3 hPa Calm   1 mph /  1.6 km/h 92 % 0 in /  0.0 mm
01:12 34.5 °F /  1.4 °C 32.4 °F /  0.2 °C 30.3 in /  1026.3 hPa Calm   2 mph /  3.2 km/h 92 % 0 in /  0.0 mm
01:22 34.7 °F /  1.5 °C 32.4 °F /  0.2 °C 30.3 in /  1026.3 hPa Calm   4 mph /  6.4 km/h 91 % 0 in /  0.0 mm
01:32 34.3 °F /  1.3 °C 32 °F /  0.0 °C 30.3 in /  1026.3 hPa WSW 1 mph /  1.6 km/h 1 mph /  1.6 km/h 91 % 0 in /  0.0 mm
01:42 34.3 °F /  1.3 °C 32 °F /  0.0 °C 30.3 in /  1026.3 hPa SSW 1 mph /  1.6 km/h 1 mph /  1.6 km/h 91 % 0 in /  0.0 mm
01:52 34.2 °F /  1.2 °C 31.8 °F /  -0.1 °C 30.3 in /  1026.3 hPa Calm   3 mph /  4.8 km/h 91 % 0 in /  0.0 mm
01:57 34 °F /  1.1 °C 31.6 °F /  -0.2 °C 30.3 in /  1026.3 hPa SW 1 mph /  1.6 km/h 4 mph /  6.4 km/h 91 % 0 in /  0.0 mm
02:02 33.8 °F /  1.0 °C 31.6 °F /  -0.2 °C 30.3 in /  1026.3 hPa SW 3 mph /  4.8 km/h 4 mph /  6.4 km/h 92 % 0 in /  0.0 mm
02:12 34 °F /  1.1 °C 31.8 °F /  -0.1 °C 30.3 in /  1026.6 hPa SW 2 mph /  3.2 km/h 5 mph /  8.0 km/h 92 % 0 in /  0.0 mm
02:17 33.6 °F /  0.9 °C 31.5 °F /  -0.3 °C 30.3 in /  1026.6 hPa SW 3 mph /  4.8 km/h 5 mph /  8.0 km/h 92 % 0 in /  0.0 mm
02:22 33.4 °F /  0.8 °C 31.3 °F /  -0.4 °C 30.3 in /  1026.6 hPa SSW 2 mph /  3.2 km/h 5 mph /  8.0 km/h 92 % 0 in /  0.0 mm
02:27 33.3 °F /  0.7 °C 31.1 °F /  -0.5 °C 30.3 in /  1026.6 hPa SW 4 mph /  6.4 km/h 5 mph /  8.0 km/h 92 % 0 in /  0.0 mm
02:42 34 °F /  1.1 °C 32.2 °F /  0.1 °C 30.3 in /  1026.6 hPa West 2 mph /  3.2 km/h 5 mph /  8.0 km/h 93 % 0 in /  0.0 mm
02:52 34.2 °F /  1.2 °C 32 °F /  0.0 °C 30.3 in /  1027.0 hPa SW 2 mph /  3.2 km/h 5 mph /  8.0 km/h 92 % 0 in /  0.0 mm
02:57 34.2 °F /  1.2 °C 32 °F /  0.0 °C 30.3 in /  1027.0 hPa WSW 2 mph /  3.2 km/h 4 mph /  6.4 km/h 92 % 0 in /  0.0 mm
03:02 34 °F /  1.1 °C 31.8 °F /  -0.1 °C 30.3 in /  1027.0 hPa SW 2 mph /  3.2 km/h 4 mph /  6.4 km/h 92 % 0 in /  0.0 mm
03:07 34 °F /  1.1 °C 31.8 °F /  -0.1 °C 30.3 in /  1027.0 hPa WSW 3 mph /  4.8 km/h 4 mph /  6.4 km/h 92 % 0 in /  0.0 mm
03:12 34 °F /  1.1 °C 31.8 °F /  -0.1 °C 30.3 in /  1027.0 hPa West 3 mph /  4.8 km/h 4 mph /  6.4 km/h 92 % 0 in /  0.0 mm
03:17 34 °F /  1.1 °C 31.8 °F /  -0.1 °C 30.3 in /  1027.0 hPa WSW 1 mph /  1.6 km/h 5 mph /  8.0 km/h 92 % 0 in /  0.0 mm
03:22 33.4 °F /  0.8 °C 31.1 °F /  -0.5 °C 30.3 in /  1027.3 hPa Calm   5 mph /  8.0 km/h 91 % 0 in /  0.0 mm
03:27 32.9 °F /  0.5 °C 30.6 °F /  -0.8 °C 30.3 in /  1027.0 hPa Calm   5 mph /  8.0 km/h 91 % 0 in /  0.0 mm
03:37 32.5 °F /  0.3 °C 30.7 °F /  -0.7 °C 30.3 in /  1027.0 hPa SW 3 mph /  4.8 km/h 3 mph /  4.8 km/h 93 % 0 in /  0.0 mm
03:42 32.4 °F /  0.2 °C 30.6 °F /  -0.8 °C 30.3 in /  1027.0 hPa SSW 2 mph /  3.2 km/h 2 mph /  3.2 km/h 93 % 0 in /  0.0 mm
03:47 32 °F /  0.0 °C 30 °F /  -1.1 °C 30.3 in /  1027.0 hPa SW 3 mph /  4.8 km/h 4 mph /  6.4 km/h 92 % 0 in /  0.0 mm
03:52 31.8 °F /  -0.1 °C 30 °F /  -1.1 °C 30.3 in /  1027.0 hPa SW 1 mph /  1.6 km/h 4 mph /  6.4 km/h 93 % 0 in /  0.0 mm
03:57 31.5 °F /  -0.3 °C 29.7 °F /  -1.3 °C 30.3 in /  1027.0 hPa SSW 3 mph /  4.8 km/h 6 mph /  9.7 km/h 93 % 0 in /  0.0 mm
04:02 31.3 °F /  -0.4 °C 29.5 °F /  -1.4 °C 30.3 in /  1027.0 hPa SSW 1 mph /  1.6 km/h 6 mph /  9.7 km/h 93 % 0 in /  0.0 mm
04:12 30.7 °F /  -0.7 °C 29.3 °F /  -1.5 °C 30.3 in /  1027.0 hPa SSW 2 mph /  3.2 km/h 5 mph /  8.0 km/h 94 % 0 in /  0.0 mm
04:17 30.6 °F /  -0.8 °C 29.1 °F /  -1.6 °C 30.3 in /  1027.0 hPa SSW 1 mph /  1.6 km/h 4 mph /  6.4 km/h 94 % 0 in /  0.0 mm
04:22 30.4 °F /  -0.9 °C 28.9 °F /  -1.7 °C 30.3 in /  1027.0 hPa SW 1 mph /  1.6 km/h 4 mph /  6.4 km/h 94 % 0 in /  0.0 mm
04:27 30 °F /  -1.1 °C 28.6 °F /  -1.9 °C 30.3 in /  1027.3 hPa SW 5 mph /  8.0 km/h 5 mph /  8.0 km/h 94 % 0 in /  0.0 mm
04:32 30.4 °F /  -0.9 °C 29.1 °F /  -1.6 °C 30.3 in /  1027.0 hPa SW 3 mph /  4.8 km/h 5 mph /  8.0 km/h 95 % 0 in /  0.0 mm
04:42 30.7 °F /  -0.7 °C 29.5 °F /  -1.4 °C 30.3 in /  1027.3 hPa SW 3 mph /  4.8 km/h 7 mph /  11.3 km/h 95 % 0 in /  0.0 mm
04:47 30.6 °F /  -0.8 °C 29.3 °F /  -1.5 °C 30.3 in /  1027.3 hPa SW 1 mph /  1.6 km/h 5 mph /  8.0 km/h 95 % 0 in /  0.0 mm
04:52 30.7 °F /  -0.7 °C 29.5 °F /  -1.4 °C 30.4 in /  1027.7 hPa SW 1 mph /  1.6 km/h 5 mph /  8.0 km/h 95 % 0 in /  0.0 mm
05:02 30.7 °F /  -0.7 °C 29.5 °F /  -1.4 °C 30.4 in /  1027.7 hPa SW 1 mph /  1.6 km/h 5 mph /  8.0 km/h 95 % 0 in /  0.0 mm
05:12 30.6 °F /  -0.8 °C 29.3 °F /  -1.5 °C 30.4 in /  1027.7 hPa Calm   5 mph /  8.0 km/h 95 % 0 in /  0.0 mm
05:17 30.7 °F /  -0.7 °C 29.7 °F /  -1.3 °C 30.4 in /  1027.7 hPa Calm   4 mph /  6.4 km/h 96 % 0 in /  0.0 mm
05:22 30.7 °F /  -0.7 °C 29.7 °F /  -1.3 °C 30.4 in /  1027.7 hPa SW 1 mph /  1.6 km/h 4 mph /  6.4 km/h 96 % 0 in /  0.0 mm
05:32 30.6 °F /  -0.8 °C 29.3 °F /  -1.5 °C 30.4 in /  1027.7 hPa SW 4 mph /  6.4 km/h 4 mph /  6.4 km/h 95 % 0 in /  0.0 mm
05:37 30.7 °F /  -0.7 °C 29.7 °F /  -1.3 °C 30.4 in /  1027.7 hPa SW 5 mph /  8.0 km/h 5 mph /  8.0 km/h 96 % 0 in /  0.0 mm
05:42 30.6 °F /  -0.8 °C 29.3 °F /  -1.5 °C 30.4 in /  1027.7 hPa WSW 1 mph /  1.6 km/h 5 mph /  8.0 km/h 95 % 0 in /  0.0 mm
05:47 30.2 °F /  -1.0 °C 28.9 °F /  -1.7 °C 30.4 in /  1027.7 hPa SSW 3 mph /  4.8 km/h 5 mph /  8.0 km/h 95 % 0 in /  0.0 mm
05:52 29.8 °F /  -1.2 °C 28.6 °F /  -1.9 °C 30.4 in /  1027.7 hPa SSW 2 mph /  3.2 km/h 5 mph /  8.0 km/h 95 % 0 in /  0.0 mm
06:02 29.5 °F /  -1.4 °C 28.2 °F /  -2.1 °C 30.4 in /  1027.7 hPa SSW 3 mph /  4.8 km/h 4 mph /  6.4 km/h 95 % 0 in /  0.0 mm
06:12 29.5 °F /  -1.4 °C 28.4 °F /  -2.0 °C 30.4 in /  1027.7 hPa SW 3 mph /  4.8 km/h 6 mph /  9.7 km/h 96 % 0 in /  0.0 mm
06:17 29.7 °F /  -1.3 °C 28.6 °F /  -1.9 °C 30.4 in /  1027.7 hPa SW 4 mph /  6.4 km/h 6 mph /  9.7 km/h 96 % 0 in /  0.0 mm
06:22 29.7 °F /  -1.3 °C 28.6 °F /  -1.9 °C 30.4 in /  1027.7 hPa SW 5 mph /  8.0 km/h 6 mph /  9.7 km/h 96 % 0 in /  0.0 mm
06:27 29.8 °F /  -1.2 °C 28.8 °F /  -1.8 °C 30.4 in /  1027.7 hPa SW 3 mph /  4.8 km/h 7 mph /  11.3 km/h 96 % 0 in /  0.0 mm
06:32 29.8 °F /  -1.2 °C 28.8 °F /  -1.8 °C 30.4 in /  1027.7 hPa SSW 3 mph /  4.8 km/h 7 mph /  11.3 km/h 96 % 0 in /  0.0 mm
06:37 29.8 °F /  -1.2 °C 28.8 °F /  -1.8 °C 30.4 in /  1027.7 hPa WSW 5 mph /  8.0 km/h 7 mph /  11.3 km/h 96 % 0 in /  0.0 mm
06:42 29.8 °F /  -1.2 °C 28.8 °F /  -1.8 °C 30.4 in /  1027.7 hPa SW 4 mph /  6.4 km/h 7 mph /  11.3 km/h 96 % 0 in /  0.0 mm
06:47 29.7 °F /  -1.3 °C 28.6 °F /  -1.9 °C 30.4 in /  1027.7 hPa SW 3 mph /  4.8 km/h 7 mph /  11.3 km/h 96 % 0 in /  0.0 mm
06:52 29.7 °F /  -1.3 °C 28.6 °F /  -1.9 °C 30.4 in /  1027.7 hPa SW 3 mph /  4.8 km/h 7 mph /  11.3 km/h 96 % 0 in /  0.0 mm
07:02 29.7 °F /  -1.3 °C 28.6 °F /  -1.9 °C 30.4 in /  1027.7 hPa SSW 2 mph /  3.2 km/h 6 mph /  9.7 km/h 96 % 0 in /  0.0 mm
07:12 29.8 °F /  -1.2 °C 28.8 °F /  -1.8 °C 30.4 in /  1027.7 hPa SSW 3 mph /  4.8 km/h 6 mph /  9.7 km/h 96 % 0 in /  0.0 mm
07:17 30 °F /  -1.1 °C 28.9 °F /  -1.7 °C 30.4 in /  1027.7 hPa SSW 1 mph /  1.6 km/h 5 mph /  8.0 km/h 96 % 0 in /  0.0 mm
07:22 30 °F /  -1.1 °C 29.3 °F /  -1.5 °C 30.4 in /  1027.7 hPa SW 2 mph /  3.2 km/h 5 mph /  8.0 km/h 97 % 0 in /  0.0 mm
07:27 30.2 °F /  -1.0 °C 29.5 °F /  -1.4 °C 30.4 in /  1027.7 hPa SSW 2 mph /  3.2 km/h 4 mph /  6.4 km/h 97 % 0 in /  0.0 mm
07:32 30.4 °F /  -0.9 °C 29.7 °F /  -1.3 °C 30.4 in /  1027.7 hPa SSW 1 mph /  1.6 km/h 4 mph /  6.4 km/h 97 % 0 in /  0.0 mm
07:42 30.6 °F /  -0.8 °C 29.8 °F /  -1.2 °C 30.4 in /  1028.0 hPa Calm   3 mph /  4.8 km/h 97 % 0 in /  0.0 mm
07:47 30.9 °F /  -0.6 °C 30.2 °F /  -1.0 °C 30.4 in /  1028.0 hPa SSW 1 mph /  1.6 km/h 3 mph /  4.8 km/h 97 % 0 in /  0.0 mm
07:57 31.5 °F /  -0.3 °C 30.7 °F /  -0.7 °C 30.4 in /  1028.0 hPa WSW 1 mph /  1.6 km/h 6 mph /  9.7 km/h 97 % 0 in /  0.0 mm
08:02 31.6 °F /  -0.2 °C 30.9 °F /  -0.6 °C 30.4 in /  1028.0 hPa WSW 4 mph /  6.4 km/h 6 mph /  9.7 km/h 97 % 0 in /  0.0 mm
08:12 31.8 °F /  -0.1 °C 31.1 °F /  -0.5 °C 30.4 in /  1028.3 hPa SW 7 mph /  11.3 km/h 7 mph /  11.3 km/h 97 % 0 in /  0.0 mm
08:17 31.8 °F /  -0.1 °C 31.1 °F /  -0.5 °C 30.4 in /  1028.3 hPa WSW 3 mph /  4.8 km/h 8 mph /  12.9 km/h 97 % 0 in /  0.0 mm
08:22 31.8 °F /  -0.1 °C 31.1 °F /  -0.5 °C 30.4 in /  1028.3 hPa SW 1 mph /  1.6 km/h 8 mph /  12.9 km/h 97 % 0 in /  0.0 mm
08:32 31.8 °F /  -0.1 °C 31.1 °F /  -0.5 °C 30.4 in /  1028.3 hPa WSW 4 mph /  6.4 km/h 8 mph /  12.9 km/h 97 % 0 in /  0.0 mm
08:42 31.8 °F /  -0.1 °C 31.1 °F /  -0.5 °C 30.4 in /  1028.3 hPa SW 1 mph /  1.6 km/h 7 mph /  11.3 km/h 97 % 0 in /  0.0 mm
08:47 31.8 °F /  -0.1 °C 31.1 °F /  -0.5 °C 30.4 in /  1028.7 hPa WSW 4 mph /  6.4 km/h 6 mph /  9.7 km/h 97 % 0 in /  0.0 mm
08:52 31.8 °F /  -0.1 °C 31.1 °F /  -0.5 °C 30.4 in /  1028.7 hPa West 6 mph /  9.7 km/h 6 mph /  9.7 km/h 97 % 0 in /  0.0 mm
09:02 31.8 °F /  -0.1 °C 31.1 °F /  -0.5 °C 30.4 in /  1028.7 hPa WSW 3 mph /  4.8 km/h 8 mph /  12.9 km/h 97 % 0 in /  0.0 mm
09:07 32 °F /  0.0 °C 31.3 °F /  -0.4 °C 30.4 in /  1028.7 hPa West 4 mph /  6.4 km/h 8 mph /  12.9 km/h 97 % 0 in /  0.0 mm
09:12 32 °F /  0.0 °C 31.3 °F /  -0.4 °C 30.4 in /  1028.7 hPa SW 5 mph /  8.0 km/h 8 mph /  12.9 km/h 97 % 0 in /  0.0 mm
09:17 32.2 °F /  0.1 °C 31.5 °F /  -0.3 °C 30.4 in /  1028.7 hPa WSW 2 mph /  3.2 km/h 7 mph /  11.3 km/h 97 % 0 in /  0.0 mm
09:22 32.2 °F /  0.1 °C 31.5 °F /  -0.3 °C 30.4 in /  1028.7 hPa WSW 5 mph /  8.0 km/h 7 mph /  11.3 km/h 97 % 0 in /  0.0 mm
09:32 32.2 °F /  0.1 °C 31.5 °F /  -0.3 °C 30.4 in /  1029.0 hPa WSW 2 mph /  3.2 km/h 7 mph /  11.3 km/h 97 % 0 in /  0.0 mm
09:42 32.2 °F /  0.1 °C 31.5 °F /  -0.3 °C 30.4 in /  1029.0 hPa Calm   7 mph /  11.3 km/h 97 % 0 in /  0.0 mm
09:47 32.2 °F /  0.1 °C 31.5 °F /  -0.3 °C 30.4 in /  1029.3 hPa Calm   4 mph /  6.4 km/h 97 % 0 in /  0.0 mm
09:52 32.2 °F /  0.1 °C 31.5 °F /  -0.3 °C 30.4 in /  1029.3 hPa SSE 1 mph /  1.6 km/h 4 mph /  6.4 km/h 97 % 0 in /  0.0 mm
09:57 32.4 °F /  0.2 °C 31.6 °F /  -0.2 °C 30.4 in /  1029.3 hPa SSW 2 mph /  3.2 km/h 6 mph /  9.7 km/h 97 % 0 in /  0.0 mm
10:02 32.4 °F /  0.2 °C 31.6 °F /  -0.2 °C 30.4 in /  1029.3 hPa WSW 3 mph /  4.8 km/h 6 mph /  9.7 km/h 97 % 0 in /  0.0 mm
10:07 32.5 °F /  0.3 °C 31.8 °F /  -0.1 °C 30.4 in /  1029.3 hPa SW 2 mph /  3.2 km/h 4 mph /  6.4 km/h 97 % 0.01 in /  0.3 mm
10:17 32.7 °F /  0.4 °C 32 °F /  0.0 °C 30.4 in /  1029.7 hPa SSW 3 mph /  4.8 km/h 4 mph /  6.4 km/h 97 % 0.01 in /  0.3 mm
10:22 32.7 °F /  0.4 °C 32 °F /  0.0 °C 30.4 in /  1029.7 hPa Calm   4 mph /  6.4 km/h 97 % 0.01 in /  0.3 mm
10:32 32.9 °F /  0.5 °C 32.2 °F /  0.1 °C 30.4 in /  1029.7 hPa Calm   6 mph /  9.7 km/h 97 % 0.01 in /  0.3 mm
10:42 33.3 °F /  0.7 °C 32.5 °F /  0.3 °C 30.4 in /  1029.7 hPa Calm   5 mph /  8.0 km/h 97 % 0.01 in /  0.3 mm
10:47 33.4 °F /  0.8 °C 32.7 °F /  0.4 °C 30.4 in /  1029.7 hPa SW 1 mph /  1.6 km/h 4 mph /  6.4 km/h 97 % 0.01 in /  0.3 mm
10:57 34 °F /  1.1 °C 33.3 °F /  0.7 °C 30.4 in /  1029.7 hPa WSW 2 mph /  3.2 km/h 2 mph /  3.2 km/h 97 % 0 in /  0.0 mm
11:02 34 °F /  1.1 °C 33.3 °F /  0.7 °C 30.4 in /  1029.7 hPa WSW 3 mph /  4.8 km/h 3 mph /  4.8 km/h 97 % 0 in /  0.0 mm
11:12 34.2 °F /  1.2 °C 33.4 °F /  0.8 °C 30.4 in /  1029.7 hPa WSW 4 mph /  6.4 km/h 6 mph /  9.7 km/h 97 % 0 in /  0.0 mm
11:17 34.3 °F /  1.3 °C 33.6 °F /  0.9 °C 30.4 in /  1029.7 hPa WSW 4 mph /  6.4 km/h 6 mph /  9.7 km/h 97 % 0 in /  0.0 mm
11:22 34.9 °F /  1.6 °C 34.2 °F /  1.2 °C 30.4 in /  1029.7 hPa West 1 mph /  1.6 km/h 6 mph /  9.7 km/h 97 % 0 in /  0.0 mm
11:32 36.1 °F /  2.3 °C 35.4 °F /  1.9 °C 30.4 in /  1029.7 hPa WNW 1 mph /  1.6 km/h 7 mph /  11.3 km/h 97 % 0 in /  0.0 mm
11:37 36.7 °F /  2.6 °C 36 °F /  2.2 °C 30.4 in /  1029.7 hPa WSW 3 mph /  4.8 km/h 6 mph /  9.7 km/h 97 % 0 in /  0.0 mm
11:47 37.2 °F /  2.9 °C 36.5 °F /  2.5 °C 30.4 in /  1029.7 hPa SW 1 mph /  1.6 km/h 7 mph /  11.3 km/h 97 % 0 in /  0.0 mm
11:52 37.2 °F /  2.9 °C 36.5 °F /  2.5 °C 30.4 in /  1029.7 hPa West 3 mph /  4.8 km/h 7 mph /  11.3 km/h 97 % 0 in /  0.0 mm
12:02 36.9 °F /  2.7 °C 35.8 °F /  2.1 °C 30.4 in /  1029.7 hPa West 2 mph /  3.2 km/h 7 mph /  11.3 km/h 96 % 0 in /  0.0 mm
12:07 36.7 °F /  2.6 °C 35.4 °F /  1.9 °C 30.4 in /  1029.7 hPa SW 4 mph /  6.4 km/h 8 mph /  12.9 km/h 95 % 0 in /  0.0 mm
12:12 36.9 °F /  2.7 °C 35.6 °F /  2.0 °C 30.4 in /  1029.7 hPa SSW 2 mph /  3.2 km/h 8 mph /  12.9 km/h 95 % 0 in /  0.0 mm
12:17 37.2 °F /  2.9 °C 36.1 °F /  2.3 °C 30.4 in /  1029.7 hPa SSW 1 mph /  1.6 km/h 8 mph /  12.9 km/h 96 % 0 in /  0.0 mm
12:22 37.6 °F /  3.1 °C 36.3 °F /  2.4 °C 30.4 in /  1029.7 hPa WSW 3 mph /  4.8 km/h 8 mph /  12.9 km/h 95 % 0 in /  0.0 mm
12:37 37.6 °F /  3.1 °C 35.4 °F /  1.9 °C 30.4 in /  1029.7 hPa WSW 3 mph /  4.8 km/h 7 mph /  11.3 km/h 92 % 0 in /  0.0 mm
12:42 37.2 °F /  2.9 °C 35.4 °F /  1.9 °C 30.4 in /  1029.7 hPa WSW 4 mph /  6.4 km/h 7 mph /  11.3 km/h 93 % 0 in /  0.0 mm
12:52 37.2 °F /  2.9 °C 35.6 °F /  2.0 °C 30.4 in /  1029.7 hPa SSE 4 mph /  6.4 km/h 9 mph /  14.5 km/h 94 % 0 in /  0.0 mm
12:57 37 °F /  2.8 °C 35.2 °F /  1.8 °C 30.4 in /  1029.7 hPa SSW 2 mph /  3.2 km/h 7 mph /  11.3 km/h 93 % 0 in /  0.0 mm
13:02 37.2 °F /  2.9 °C 35.6 °F /  2.0 °C 30.4 in /  1029.7 hPa South 2 mph /  3.2 km/h 7 mph /  11.3 km/h 94 % 0 in /  0.0 mm
13:12 38.3 °F /  3.5 °C 37 °F /  2.8 °C 30.4 in /  1029.7 hPa WSW 6 mph /  9.7 km/h 6 mph /  9.7 km/h 95 % 0 in /  0.0 mm
13:22 39.2 °F /  4.0 °C 36.9 °F /  2.7 °C 30.4 in /  1029.7 hPa West 7 mph /  11.3 km/h 8 mph /  12.9 km/h 91 % 0 in /  0.0 mm
13:32 39.7 °F /  4.3 °C 37 °F /  2.8 °C 30.4 in /  1029.7 hPa WNW 6 mph /  9.7 km/h 9 mph /  14.5 km/h 90 % 0 in /  0.0 mm
13:42 40.5 °F /  4.7 °C 37.2 °F /  2.9 °C 30.4 in /  1029.3 hPa NW 1 mph /  1.6 km/h 9 mph /  14.5 km/h 88 % 0 in /  0.0 mm
13:47 40.6 °F /  4.8 °C 36.9 °F /  2.7 °C 30.4 in /  1029.3 hPa NW 3 mph /  4.8 km/h 8 mph /  12.9 km/h 86 % 0 in /  0.0 mm
13:52 40.6 °F /  4.8 °C 36.5 °F /  2.5 °C 30.4 in /  1029.3 hPa NW 2 mph /  3.2 km/h 8 mph /  12.9 km/h 85 % 0 in /  0.0 mm
13:57 41.2 °F /  5.1 °C 37 °F /  2.8 °C 30.4 in /  1029.3 hPa WNW 2 mph /  3.2 km/h 10 mph /  16.1 km/h 85 % 0 in /  0.0 mm
14:02 41.2 °F /  5.1 °C 36.7 °F /  2.6 °C 30.4 in /  1029.3 hPa West 4 mph /  6.4 km/h 10 mph /  16.1 km/h 84 % 0 in /  0.0 mm
14:12 41.4 °F /  5.2 °C 36.5 °F /  2.5 °C 30.4 in /  1029.3 hPa WSW 2 mph /  3.2 km/h 8 mph /  12.9 km/h 83 % 0 in /  0.0 mm
14:17 41.5 °F /  5.3 °C 37 °F /  2.8 °C 30.4 in /  1029.3 hPa West 2 mph /  3.2 km/h 9 mph /  14.5 km/h 84 % 0 in /  0.0 mm
14:27 41.9 °F /  5.5 °C 37 °F /  2.8 °C 30.4 in /  1029.3 hPa West 5 mph /  8.0 km/h 9 mph /  14.5 km/h 83 % 0 in /  0.0 mm
14:32 42.1 °F /  5.6 °C 37.6 °F /  3.1 °C 30.4 in /  1029.3 hPa West 4 mph /  6.4 km/h 9 mph /  14.5 km/h 84 % 0 in /  0.0 mm
14:42 42.3 °F /  5.7 °C 37.8 °F /  3.2 °C 30.4 in /  1029.3 hPa SW 5 mph /  8.0 km/h 10 mph /  16.1 km/h 84 % 0 in /  0.0 mm
14:47 42.4 °F /  5.8 °C 37.6 °F /  3.1 °C 30.4 in /  1029.3 hPa West 4 mph /  6.4 km/h 10 mph /  16.1 km/h 83 % 0 in /  0.0 mm
14:57 42.4 °F /  5.8 °C 37.6 °F /  3.1 °C 30.4 in /  1029.3 hPa West 6 mph /  9.7 km/h 8 mph /  12.9 km/h 83 % 0 in /  0.0 mm
15:02 42.8 °F /  6.0 °C 37.4 °F /  3.0 °C 30.4 in /  1029.3 hPa West 3 mph /  4.8 km/h 8 mph /  12.9 km/h 81 % 0 in /  0.0 mm
15:12 43.3 °F /  6.3 °C 37.9 °F /  3.3 °C 30.4 in /  1029.3 hPa SW 3 mph /  4.8 km/h 8 mph /  12.9 km/h 81 % 0 in /  0.0 mm
15:17 43.2 °F /  6.2 °C 38.1 °F /  3.4 °C 30.4 in /  1029.3 hPa SW 4 mph /  6.4 km/h 9 mph /  14.5 km/h 82 % 0 in /  0.0 mm
15:22 43.2 °F /  6.2 °C 36.7 °F /  2.6 °C 30.4 in /  1029.3 hPa WNW 11 mph /  17.7 km/h 11 mph /  17.7 km/h 78 % 0 in /  0.0 mm
15:27 43.3 °F /  6.3 °C 36.7 °F /  2.6 °C 30.4 in /  1029.3 hPa West 8 mph /  12.9 km/h 13 mph /  20.9 km/h 77 % 0 in /  0.0 mm
15:32 43.3 °F /  6.3 °C 36.7 °F /  2.6 °C 30.4 in /  1029.3 hPa West 8 mph /  12.9 km/h 13 mph /  20.9 km/h 77 % 0 in /  0.0 mm
15:37 43.2 °F /  6.2 °C 36.7 °F /  2.6 °C 30.4 in /  1029.3 hPa WNW 2 mph /  3.2 km/h 13 mph /  20.9 km/h 78 % 0 in /  0.0 mm
15:42 43 °F /  6.1 °C 36.9 °F /  2.7 °C 30.4 in /  1029.7 hPa WNW 3 mph /  4.8 km/h 13 mph /  20.9 km/h 79 % 0 in /  0.0 mm
15:52 42.6 °F /  5.9 °C 36.3 °F /  2.4 °C 30.4 in /  1029.7 hPa West 5 mph /  8.0 km/h 11 mph /  17.7 km/h 78 % 0 in /  0.0 mm
15:57 42.4 °F /  5.8 °C 36.7 °F /  2.6 °C 30.4 in /  1029.7 hPa West 5 mph /  8.0 km/h 10 mph /  16.1 km/h 80 % 0 in /  0.0 mm
16:02 42.3 °F /  5.7 °C 37.2 °F /  2.9 °C 30.4 in /  1029.7 hPa West 5 mph /  8.0 km/h 10 mph /  16.1 km/h 82 % 0 in /  0.0 mm
16:07 42.1 °F /  5.6 °C 37.2 °F /  2.9 °C 30.4 in /  1029.7 hPa West 5 mph /  8.0 km/h 8 mph /  12.9 km/h 83 % 0 in /  0.0 mm
16:12 41.9 °F /  5.5 °C 37 °F /  2.8 °C 30.4 in /  1029.7 hPa West 4 mph /  6.4 km/h 8 mph /  12.9 km/h 83 % 0 in /  0.0 mm
16:17 41.7 °F /  5.4 °C 36.9 °F /  2.7 °C 30.4 in /  1029.7 hPa West 2 mph /  3.2 km/h 8 mph /  12.9 km/h 83 % 0 in /  0.0 mm
16:22 41.7 °F /  5.4 °C 36.9 °F /  2.7 °C 30.4 in /  1029.7 hPa WSW 3 mph /  4.8 km/h 8 mph /  12.9 km/h 83 % 0 in /  0.0 mm
16:27 41.5 °F /  5.3 °C 37 °F /  2.8 °C 30.4 in /  1029.7 hPa West 4 mph /  6.4 km/h 8 mph /  12.9 km/h 84 % 0 in /  0.0 mm
16:32 41.5 °F /  5.3 °C 37 °F /  2.8 °C 30.4 in /  1029.7 hPa West 4 mph /  6.4 km/h 8 mph /  12.9 km/h 84 % 0 in /  0.0 mm
16:37 41.4 °F /  5.2 °C 36.9 °F /  2.7 °C 30.4 in /  1029.7 hPa WSW 1 mph /  1.6 km/h 6 mph /  9.7 km/h 84 % 0 in /  0.0 mm
16:42 41.4 °F /  5.2 °C 36.9 °F /  2.7 °C 30.4 in /  1029.7 hPa WSW 3 mph /  4.8 km/h 6 mph /  9.7 km/h 84 % 0 in /  0.0 mm
16:47 41.2 °F /  5.1 °C 37 °F /  2.8 °C 30.4 in /  1029.7 hPa WSW 3 mph /  4.8 km/h 7 mph /  11.3 km/h 85 % 0 in /  0.0 mm
16:52 41.2 °F /  5.1 °C 37 °F /  2.8 °C 30.4 in /  1030.0 hPa West 2 mph /  3.2 km/h 7 mph /  11.3 km/h 85 % 0 in /  0.0 mm
16:57 40.8 °F /  4.9 °C 36.7 °F /  2.6 °C 30.4 in /  1030.0 hPa WSW 3 mph /  4.8 km/h 6 mph /  9.7 km/h 85 % 0 in /  0.0 mm
17:02 40.8 °F /  4.9 °C 37 °F /  2.8 °C 30.4 in /  1030.0 hPa WSW 2 mph /  3.2 km/h 6 mph /  9.7 km/h 86 % 0 in /  0.0 mm
17:12 40.5 °F /  4.7 °C 36.9 °F /  2.7 °C 30.4 in /  1030.0 hPa West 4 mph /  6.4 km/h 6 mph /  9.7 km/h 87 % 0 in /  0.0 mm
17:17 40.3 °F /  4.6 °C 36.7 °F /  2.6 °C 30.4 in /  1030.4 hPa WNW 2 mph /  3.2 km/h 4 mph /  6.4 km/h 87 % 0 in /  0.0 mm
17:22 39.9 °F /  4.4 °C 36.3 °F /  2.4 °C 30.4 in /  1030.4 hPa West 1 mph /  1.6 km/h 4 mph /  6.4 km/h 87 % 0 in /  0.0 mm
17:27 39.7 °F /  4.3 °C 36.5 °F /  2.5 °C 30.4 in /  1030.4 hPa WSW 2 mph /  3.2 km/h 4 mph /  6.4 km/h 88 % 0 in /  0.0 mm
17:32 39.7 °F /  4.3 °C 36.1 °F /  2.3 °C 30.4 in /  1030.4 hPa WNW 3 mph /  4.8 km/h 4 mph /  6.4 km/h 87 % 0 in /  0.0 mm
17:42 39.6 °F /  4.2 °C 36.3 °F /  2.4 °C 30.4 in /  1030.4 hPa West 2 mph /  3.2 km/h 4 mph /  6.4 km/h 88 % 0 in /  0.0 mm
17:52 39.4 °F /  4.1 °C 36.1 °F /  2.3 °C 30.4 in /  1030.4 hPa West 3 mph /  4.8 km/h 4 mph /  6.4 km/h 88 % 0 in /  0.0 mm
17:57 39.4 °F /  4.1 °C 36.1 °F /  2.3 °C 30.4 in /  1030.4 hPa West 3 mph /  4.8 km/h 5 mph /  8.0 km/h 88 % 0 in /  0.0 mm
18:02 39.2 °F /  4.0 °C 35.6 °F /  2.0 °C 30.4 in /  1030.4 hPa West 2 mph /  3.2 km/h 5 mph /  8.0 km/h 87 % 0 in /  0.0 mm
18:12 39.4 °F /  4.1 °C 35.8 °F /  2.1 °C 30.4 in /  1030.4 hPa West 3 mph /  4.8 km/h 5 mph /  8.0 km/h 87 % 0 in /  0.0 mm
18:17 39.2 °F /  4.0 °C 35.6 °F /  2.0 °C 30.4 in /  1030.7 hPa West 3 mph /  4.8 km/h 6 mph /  9.7 km/h 87 % 0 in /  0.0 mm
18:22 39 °F /  3.9 °C 35.4 °F /  1.9 °C 30.4 in /  1030.7 hPa West 3 mph /  4.8 km/h 6 mph /  9.7 km/h 87 % 0 in /  0.0 mm
18:32 39 °F /  3.9 °C 35.4 °F /  1.9 °C 30.4 in /  1030.4 hPa West 4 mph /  6.4 km/h 6 mph /  9.7 km/h 87 % 0 in /  0.0 mm
18:37 39 °F /  3.9 °C 35.4 °F /  1.9 °C 30.4 in /  1030.7 hPa West 4 mph /  6.4 km/h 6 mph /  9.7 km/h 87 % 0 in /  0.0 mm
18:42 39 °F /  3.9 °C 35.4 °F /  1.9 °C 30.4 in /  1030.7 hPa WSW 4 mph /  6.4 km/h 7 mph /  11.3 km/h 87 % 0 in /  0.0 mm
18:47 39.2 °F /  4.0 °C 35.6 °F /  2.0 °C 30.4 in /  1030.7 hPa West 4 mph /  6.4 km/h 7 mph /  11.3 km/h 87 % 0 in /  0.0 mm
18:52 39.2 °F /  4.0 °C 35.6 °F /  2.0 °C 30.4 in /  1030.7 hPa West 3 mph /  4.8 km/h 7 mph /  11.3 km/h 87 % 0 in /  0.0 mm
18:57 39.4 °F /  4.1 °C 35.8 °F /  2.1 °C 30.4 in /  1030.7 hPa WSW 3 mph /  4.8 km/h 7 mph /  11.3 km/h 87 % 0 in /  0.0 mm
19:07 39.4 °F /  4.1 °C 35.8 °F /  2.1 °C 30.4 in /  1030.7 hPa West 6 mph /  9.7 km/h 7 mph /  11.3 km/h 87 % 0 in /  0.0 mm
19:12 39.4 °F /  4.1 °C 35.8 °F /  2.1 °C 30.4 in /  1030.7 hPa West 4 mph /  6.4 km/h 7 mph /  11.3 km/h 87 % 0 in /  0.0 mm
19:17 39.2 °F /  4.0 °C 36 °F /  2.2 °C 30.4 in /  1030.7 hPa WSW 4 mph /  6.4 km/h 7 mph /  11.3 km/h 88 % 0 in /  0.0 mm
19:22 39 °F /  3.9 °C 35.8 °F /  2.1 °C 30.4 in /  1030.7 hPa WSW 5 mph /  8.0 km/h 7 mph /  11.3 km/h 88 % 0 in /  0.0 mm
19:27 39 °F /  3.9 °C 35.8 °F /  2.1 °C 30.4 in /  1030.7 hPa West 3 mph /  4.8 km/h 7 mph /  11.3 km/h 88 % 0 in /  0.0 mm
19:32 38.8 °F /  3.8 °C 35.6 °F /  2.0 °C 30.4 in /  1030.7 hPa West 3 mph /  4.8 km/h 7 mph /  11.3 km/h 88 % 0 in /  0.0 mm
19:37 38.7 °F /  3.7 °C 35.4 °F /  1.9 °C 30.4 in /  1030.7 hPa West 3 mph /  4.8 km/h 7 mph /  11.3 km/h 88 % 0 in /  0.0 mm
19:42 38.5 °F /  3.6 °C 35.2 °F /  1.8 °C 30.4 in /  1030.7 hPa WNW 2 mph /  3.2 km/h 7 mph /  11.3 km/h 88 % 0 in /  0.0 mm
19:47 38.5 °F /  3.6 °C 35.2 °F /  1.8 °C 30.4 in /  1030.7 hPa West 3 mph /  4.8 km/h 7 mph /  11.3 km/h 88 % 0 in /  0.0 mm
19:57 38.5 °F /  3.6 °C 35.2 °F /  1.8 °C 30.4 in /  1030.7 hPa WNW 4 mph /  6.4 km/h 7 mph /  11.3 km/h 88 % 0 in /  0.0 mm
20:07 38.7 °F /  3.7 °C 35.8 °F /  2.1 °C 30.4 in /  1030.4 hPa WSW 2 mph /  3.2 km/h 7 mph /  11.3 km/h 89 % 0 in /  0.0 mm
20:12 38.7 °F /  3.7 °C 35.8 °F /  2.1 °C 30.4 in /  1030.7 hPa West 3 mph /  4.8 km/h 7 mph /  11.3 km/h 89 % 0 in /  0.0 mm
20:17 38.5 °F /  3.6 °C 35.6 °F /  2.0 °C 30.4 in /  1030.7 hPa West 3 mph /  4.8 km/h 8 mph /  12.9 km/h 89 % 0 in /  0.0 mm
20:22 38.5 °F /  3.6 °C 35.6 °F /  2.0 °C 30.4 in /  1030.7 hPa WSW 5 mph /  8.0 km/h 8 mph /  12.9 km/h 89 % 0 in /  0.0 mm
20:27 38.5 °F /  3.6 °C 35.6 °F /  2.0 °C 30.4 in /  1030.7 hPa West 3 mph /  4.8 km/h 6 mph /  9.7 km/h 89 % 0 in /  0.0 mm
20:32 38.3 °F /  3.5 °C 35.4 °F /  1.9 °C 30.4 in /  1030.7 hPa West 3 mph /  4.8 km/h 6 mph /  9.7 km/h 89 % 0 in /  0.0 mm
20:42 38.7 °F /  3.7 °C 35.8 °F /  2.1 °C 30.4 in /  1030.7 hPa West 3 mph /  4.8 km/h 7 mph /  11.3 km/h 89 % 0 in /  0.0 mm
20:52 38.5 °F /  3.6 °C 35.6 °F /  2.0 °C 30.4 in /  1030.7 hPa WSW 2 mph /  3.2 km/h 7 mph /  11.3 km/h 89 % 0 in /  0.0 mm
20:57 38.3 °F /  3.5 °C 35.4 °F /  1.9 °C 30.4 in /  1030.7 hPa West 4 mph /  6.4 km/h 8 mph /  12.9 km/h 89 % 0 in /  0.0 mm
21:02 37.9 °F /  3.3 °C 35.1 °F /  1.7 °C 30.4 in /  1030.7 hPa WNW 3 mph /  4.8 km/h 8 mph /  12.9 km/h 89 % 0 in /  0.0 mm
21:07 37.8 °F /  3.2 °C 34.9 °F /  1.6 °C 30.4 in /  1030.7 hPa WSW 3 mph /  4.8 km/h 8 mph /  12.9 km/h 89 % 0 in /  0.0 mm
21:17 37.6 °F /  3.1 °C 34.9 °F /  1.6 °C 30.4 in /  1030.7 hPa West 4 mph /  6.4 km/h 5 mph /  8.0 km/h 90 % 0 in /  0.0 mm
21:22 37.6 °F /  3.1 °C 34.9 °F /  1.6 °C 30.4 in /  1030.7 hPa WSW 2 mph /  3.2 km/h 5 mph /  8.0 km/h 90 % 0 in /  0.0 mm
21:32 37.6 °F /  3.1 °C 34.9 °F /  1.6 °C 30.4 in /  1030.7 hPa WNW 3 mph /  4.8 km/h 5 mph /  8.0 km/h 90 % 0 in /  0.0 mm
21:42 37.2 °F /  2.9 °C 34.5 °F /  1.4 °C 30.4 in /  1030.7 hPa WNW 4 mph /  6.4 km/h 6 mph /  9.7 km/h 90 % 0 in /  0.0 mm
21:47 37 °F /  2.8 °C 34.7 °F /  1.5 °C 30.4 in /  1030.7 hPa West 3 mph /  4.8 km/h 6 mph /  9.7 km/h 91 % 0 in /  0.0 mm
21:52 37.2 °F /  2.9 °C 34.9 °F /  1.6 °C 30.4 in /  1030.7 hPa West 3 mph /  4.8 km/h 6 mph /  9.7 km/h 91 % 0 in /  0.0 mm
21:57 37.2 °F /  2.9 °C 34.9 °F /  1.6 °C 30.4 in /  1030.7 hPa West 4 mph /  6.4 km/h 5 mph /  8.0 km/h 91 % 0 in /  0.0 mm
22:07 37 °F /  2.8 °C 34.7 °F /  1.5 °C 30.4 in /  1030.7 hPa Calm   4 mph /  6.4 km/h 91 % 0 in /  0.0 mm
22:12 36.9 °F /  2.7 °C 34.5 °F /  1.4 °C 30.4 in /  1030.7 hPa Calm   4 mph /  6.4 km/h 91 % 0 in /  0.0 mm
22:17 36.9 °F /  2.7 °C 34.5 °F /  1.4 °C 30.4 in /  1030.7 hPa Calm   3 mph /  4.8 km/h 91 % 0 in /  0.0 mm
22:27 36.9 °F /  2.7 °C 34.5 °F /  1.4 °C 30.4 in /  1030.7 hPa Calm   2 mph /  3.2 km/h 91 % 0 in /  0.0 mm
22:32 36.9 °F /  2.7 °C 34.5 °F /  1.4 °C 30.4 in /  1030.7 hPa Calm   2 mph /  3.2 km/h 91 % 0 in /  0.0 mm
22:37 36.5 °F /  2.5 °C 34.2 °F /  1.2 °C 30.4 in /  1030.7 hPa Calm   1 mph /  1.6 km/h 91 % 0 in /  0.0 mm
22:42 36.1 °F /  2.3 °C 33.8 °F /  1.0 °C 30.4 in /  1030.7 hPa Calm   1 mph /  1.6 km/h 91 % 0 in /  0.0 mm
22:47 36.3 °F /  2.4 °C 34.2 °F /  1.2 °C 30.4 in /  1030.7 hPa Calm   1 mph /  1.6 km/h 92 % 0 in /  0.0 mm
22:52 36.3 °F /  2.4 °C 34.2 °F /  1.2 °C 30.4 in /  1030.7 hPa Calm   1 mph /  1.6 km/h 92 % 0 in /  0.0 mm
22:57 36 °F /  2.2 °C 33.8 °F /  1.0 °C 30.4 in /  1030.7 hPa Calm   1 mph /  1.6 km/h 92 % 0 in /  0.0 mm
23:02 35.4 °F /  1.9 °C 33.3 °F /  0.7 °C 30.4 in /  1030.7 hPa Calm   1 mph /  1.6 km/h 92 % 0 in /  0.0 mm
23:12 34.9 °F /  1.6 °C 33.1 °F /  0.6 °C 30.4 in /  1030.7 hPa Calm   2 mph /  3.2 km/h 93 % 0 in /  0.0 mm
23:22 33.8 °F /  1.0 °C 31.6 °F /  -0.2 °C 30.4 in /  1030.7 hPa Calm   3 mph /  4.8 km/h 92 % 0 in /  0.0 mm
23:32 34.3 °F /  1.3 °C 33.1 °F /  0.6 °C 30.4 in /  1030.7 hPa Calm   3 mph /  4.8 km/h 95 % 0 in /  0.0 mm
23:37 34.5 °F /  1.4 °C 33.3 °F /  0.7 °C 30.4 in /  1030.7 hPa SW 1 mph /  1.6 km/h 3 mph /  4.8 km/h 95 % 0 in /  0.0 mm
23:42 34.5 °F /  1.4 °C 33.3 °F /  0.7 °C 30.4 in /  1031.0 hPa WSW 1 mph /  1.6 km/h 3 mph /  4.8 km/h 95 % 0 in /  0.0 mm
23:47 34.3 °F /  1.3 °C 32.7 °F /  0.4 °C 30.4 in /  1031.0 hPa SW 1 mph /  1.6 km/h 2 mph /  3.2 km/h 94 % 0 in /  0.0 mm
23:52 34.2 °F /  1.2 °C 32.5 °F /  0.3 °C 30.4 in /  1031.0 hPa West 2 mph /  3.2 km/h 2 mph /  3.2 km/h 94 % 0 in /  0.0 mm
23:57 34.3 °F /  1.3 °C 33.1 °F /  0.6 °C 30.4 in /  1031.0 hPa West 1 mph /  1.6 km/h 3 mph /  4.8 km/h 95 % 0 in /  0.0 mm
Meteo18
Compliments of Weather Underground - 4 mb

Script developed by  Jim McMurry - jmcmurry@mwt.net Adapted for the template by  Wim van der Kuil - Leuven-Template.eu

You find our weather info also at:

European Weather Network

Weather Underground

Equipment we use:

Weather-station
Davis Vue

Weather-program
Meteohub

Weather-server
Raspberry PI 2 B+

Provider
1 and 1

Davis Vue

Meteohub

Raspberry PI 2 B+

1 and 1